sensor_id;sensor_type;location;lat;lon;timestamp;noise_LAeq;noise_LA_min;noise_LA_max;noise_LA01;noise_LA95
58303;Laerm;44109;52.398;7.024;2023-05-07T00:00:25;47.65;31.84;57.72;;
58303;Laerm;44109;52.398;7.024;2023-05-07T00:02:53;47.80;32.20;57.41;;
58303;Laerm;44109;52.398;7.024;2023-05-07T00:05:20;48.08;32.92;67.46;;
58303;Laerm;44109;52.398;7.024;2023-05-07T00:07:48;48.06;31.88;70.38;;
58303;Laerm;44109;52.398;7.024;2023-05-07T00:10:16;47.88;32.82;57.66;;
58303;Laerm;44109;52.398;7.024;2023-05-07T00:12:45;47.57;32.12;57.43;;
58303;Laerm;44109;52.398;7.024;2023-05-07T00:15:13;47.69;31.76;57.50;;
58303;Laerm;44109;52.398;7.024;2023-05-07T00:17:40;47.64;31.91;57.72;;
58303;Laerm;44109;52.398;7.024;2023-05-07T00:20:09;47.67;31.91;58.73;;
58303;Laerm;44109;52.398;7.024;2023-05-07T00:22:38;47.62;31.50;64.28;;
58303;Laerm;44109;52.398;7.024;2023-05-07T00:25:07;47.52;31.50;57.87;;
58303;Laerm;44109;52.398;7.024;2023-05-07T00:27:34;48.03;31.32;64.90;;
58303;Laerm;44109;52.398;7.024;2023-05-07T00:30:05;47.62;31.23;60.81;;
58303;Laerm;44109;52.398;7.024;2023-05-07T00:32:33;47.81;31.13;58.20;;
58303;Laerm;44109;52.398;7.024;2023-05-07T00:35:01;47.70;31.28;58.78;;
58303;Laerm;44109;52.398;7.024;2023-05-07T00:37:29;48.24;31.57;69.09;;
58303;Laerm;44109;52.398;7.024;2023-05-07T00:39:57;48.23;32.37;64.54;;
58303;Laerm;44109;52.398;7.024;2023-05-07T00:42:24;47.75;31.18;62.96;;
58303;Laerm;44109;52.398;7.024;2023-05-07T00:44:52;47.60;31.24;58.81;;
58303;Laerm;44109;52.398;7.024;2023-05-07T00:47:21;47.49;31.22;57.77;;
58303;Laerm;44109;52.398;7.024;2023-05-07T00:49:49;47.55;31.13;57.41;;
58303;Laerm;44109;52.398;7.024;2023-05-07T00:52:19;47.46;31.60;58.56;;
58303;Laerm;44109;52.398;7.024;2023-05-07T00:54:48;47.13;30.91;62.21;;
58303;Laerm;44109;52.398;7.024;2023-05-07T00:57:16;47.21;31.14;57.37;;
58303;Laerm;44109;52.398;7.024;2023-05-07T00:59:44;47.52;31.28;57.36;;
58303;Laerm;44109;52.398;7.024;2023-05-07T01:02:12;47.59;30.93;57.84;;
58303;Laerm;44109;52.398;7.024;2023-05-07T01:04:41;47.37;31.13;57.33;;
58303;Laerm;44109;52.398;7.024;2023-05-07T01:07:09;47.52;31.09;57.30;;
58303;Laerm;44109;52.398;7.024;2023-05-07T01:09:37;47.63;31.39;57.57;;
58303;Laerm;44109;52.398;7.024;2023-05-07T01:12:06;47.66;31.02;57.81;;
58303;Laerm;44109;52.398;7.024;2023-05-07T01:14:34;47.61;30.78;64.10;;
58303;Laerm;44109;52.398;7.024;2023-05-07T01:17:02;47.55;30.82;57.62;;
58303;Laerm;44109;52.398;7.024;2023-05-07T01:19:30;47.51;30.66;57.44;;
58303;Laerm;44109;52.398;7.024;2023-05-07T01:22:04;47.40;30.90;57.70;;
58303;Laerm;44109;52.398;7.024;2023-05-07T01:24:37;47.60;30.88;57.59;;
58303;Laerm;44109;52.398;7.024;2023-05-07T01:27:05;47.51;30.54;57.44;;
58303;Laerm;44109;52.398;7.024;2023-05-07T01:29:32;47.47;30.76;57.51;;
58303;Laerm;44109;52.398;7.024;2023-05-07T01:32:01;47.64;30.86;57.70;;
58303;Laerm;44109;52.398;7.024;2023-05-07T01:34:32;47.48;30.90;57.44;;
58303;Laerm;44109;52.398;7.024;2023-05-07T01:37:02;47.52;30.41;57.70;;
58303;Laerm;44109;52.398;7.024;2023-05-07T01:39:31;47.58;31.18;59.08;;
58303;Laerm;44109;52.398;7.024;2023-05-07T01:42:01;47.48;31.38;57.44;;
58303;Laerm;44109;52.398;7.024;2023-05-07T01:44:29;47.53;31.33;57.63;;
58303;Laerm;44109;52.398;7.024;2023-05-07T01:46:57;47.50;30.90;57.42;;
58303;Laerm;44109;52.398;7.024;2023-05-07T01:49:26;47.60;31.15;57.60;;
58303;Laerm;44109;52.398;7.024;2023-05-07T01:51:54;47.49;31.00;57.48;;
58303;Laerm;44109;52.398;7.024;2023-05-07T01:54:25;47.14;30.81;59.08;;
58303;Laerm;44109;52.398;7.024;2023-05-07T01:56:56;46.47;30.88;59.76;;
58303;Laerm;44109;52.398;7.024;2023-05-07T01:59:25;46.98;31.06;57.43;;
58303;Laerm;44109;52.398;7.024;2023-05-07T02:01:53;47.29;30.69;57.59;;
58303;Laerm;44109;52.398;7.024;2023-05-07T02:04:21;47.47;30.74;57.98;;
58303;Laerm;44109;52.398;7.024;2023-05-07T02:06:48;47.47;30.87;57.49;;
58303;Laerm;44109;52.398;7.024;2023-05-07T02:09:16;47.12;30.64;57.38;;
58303;Laerm;44109;52.398;7.024;2023-05-07T02:11:44;46.92;30.53;57.53;;
58303;Laerm;44109;52.398;7.024;2023-05-07T02:14:11;46.91;30.70;57.93;;
58303;Laerm;44109;52.398;7.024;2023-05-07T02:16:40;46.81;30.86;57.07;;
58303;Laerm;44109;52.398;7.024;2023-05-07T02:19:08;46.62;30.81;57.18;;
58303;Laerm;44109;52.398;7.024;2023-05-07T02:21:35;46.85;31.01;57.07;;
58303;Laerm;44109;52.398;7.024;2023-05-07T02:24:03;46.60;30.83;57.01;;
58303;Laerm;44109;52.398;7.024;2023-05-07T02:26:31;46.70;31.08;58.50;;
58303;Laerm;44109;52.398;7.024;2023-05-07T02:28:59;46.84;31.35;57.02;;
58303;Laerm;44109;52.398;7.024;2023-05-07T02:31:26;46.83;31.18;57.13;;
58303;Laerm;44109;52.398;7.024;2023-05-07T02:33:55;46.68;30.90;56.96;;
58303;Laerm;44109;52.398;7.024;2023-05-07T02:36:23;46.54;31.03;56.84;;
58303;Laerm;44109;52.398;7.024;2023-05-07T02:38:50;46.78;30.97;57.15;;
58303;Laerm;44109;52.398;7.024;2023-05-07T02:41:18;47.05;31.65;58.96;;
58303;Laerm;44109;52.398;7.024;2023-05-07T02:43:46;47.16;30.98;57.24;;
58303;Laerm;44109;52.398;7.024;2023-05-07T02:46:14;46.63;31.07;57.00;;
58303;Laerm;44109;52.398;7.024;2023-05-07T02:48:42;46.66;31.06;63.27;;
58303;Laerm;44109;52.398;7.024;2023-05-07T02:51:11;46.55;31.51;62.98;;
58303;Laerm;44109;52.398;7.024;2023-05-07T02:53:38;46.40;31.20;58.89;;
58303;Laerm;44109;52.398;7.024;2023-05-07T02:56:06;46.45;32.01;57.01;;
58303;Laerm;44109;52.398;7.024;2023-05-07T02:58:34;48.08;32.26;61.56;;
58303;Laerm;44109;52.398;7.024;2023-05-07T03:01:01;48.15;32.37;61.70;;
58303;Laerm;44109;52.398;7.024;2023-05-07T03:03:29;48.74;34.14;60.02;;
58303;Laerm;44109;52.398;7.024;2023-05-07T03:05:57;53.96;34.84;73.61;;
58303;Laerm;44109;52.398;7.024;2023-05-07T03:08:26;60.34;35.53;75.58;;
58303;Laerm;44109;52.398;7.024;2023-05-07T03:10:54;68.41;37.21;87.20;;
58303;Laerm;44109;52.398;7.024;2023-05-07T03:13:21;65.97;38.39;81.50;;
58303;Laerm;44109;52.398;7.024;2023-05-07T03:15:49;63.42;36.77;79.63;;
58303;Laerm;44109;52.398;7.024;2023-05-07T03:18:17;56.97;37.71;71.14;;
58303;Laerm;44109;52.398;7.024;2023-05-07T03:20:45;59.83;38.36;76.98;;
58303;Laerm;44109;52.398;7.024;2023-05-07T03:23:13;58.83;36.79;74.65;;
58303;Laerm;44109;52.398;7.024;2023-05-07T03:25:42;55.35;36.17;68.59;;
58303;Laerm;44109;52.398;7.024;2023-05-07T03:28:10;54.56;37.37;67.74;;
58303;Laerm;44109;52.398;7.024;2023-05-07T03:30:37;52.67;34.16;64.27;;
58303;Laerm;44109;52.398;7.024;2023-05-07T03:33:05;54.64;36.29;67.72;;
58303;Laerm;44109;52.398;7.024;2023-05-07T03:35:32;54.85;36.53;68.31;;
58303;Laerm;44109;52.398;7.024;2023-05-07T03:38:01;56.29;34.69;68.20;;
58303;Laerm;44109;52.398;7.024;2023-05-07T03:40:28;52.86;34.22;67.25;;
58303;Laerm;44109;52.398;7.024;2023-05-07T03:42:58;54.65;34.59;69.58;;
58303;Laerm;44109;52.398;7.024;2023-05-07T03:45:26;54.35;34.95;70.33;;
58303;Laerm;44109;52.398;7.024;2023-05-07T03:47:54;56.67;34.41;67.92;;
58303;Laerm;44109;52.398;7.024;2023-05-07T03:50:21;56.65;34.95;69.94;;
58303;Laerm;44109;52.398;7.024;2023-05-07T03:52:49;53.87;34.02;68.44;;
58303;Laerm;44109;52.398;7.024;2023-05-07T03:55:17;54.53;34.43;67.70;;
58303;Laerm;44109;52.398;7.024;2023-05-07T03:57:44;53.43;33.98;67.63;;
58303;Laerm;44109;52.398;7.024;2023-05-07T04:00:14;53.18;34.58;68.62;;
58303;Laerm;44109;52.398;7.024;2023-05-07T04:02:41;50.25;33.80;64.36;;
58303;Laerm;44109;52.398;7.024;2023-05-07T04:05:09;51.46;34.57;68.39;;
58303;Laerm;44109;52.398;7.024;2023-05-07T04:07:37;53.70;34.00;66.45;;
58303;Laerm;44109;52.398;7.024;2023-05-07T04:10:05;50.85;32.88;66.00;;
58303;Laerm;44109;52.398;7.024;2023-05-07T04:12:33;50.88;33.82;62.24;;
58303;Laerm;44109;52.398;7.024;2023-05-07T04:15:01;50.94;34.58;63.17;;
58303;Laerm;44109;52.398;7.024;2023-05-07T04:17:30;50.08;33.38;64.18;;
58303;Laerm;44109;52.398;7.024;2023-05-07T04:19:57;55.00;33.43;71.55;;
58303;Laerm;44109;52.398;7.024;2023-05-07T04:22:25;56.37;33.84;71.58;;
58303;Laerm;44109;52.398;7.024;2023-05-07T04:24:53;55.01;33.46;67.09;;
58303;Laerm;44109;52.398;7.024;2023-05-07T04:27:21;55.79;33.42;73.19;;
58303;Laerm;44109;52.398;7.024;2023-05-07T04:29:48;53.12;33.22;69.69;;
58303;Laerm;44109;52.398;7.024;2023-05-07T04:32:16;54.98;33.94;80.00;;
58303;Laerm;44109;52.398;7.024;2023-05-07T04:34:45;56.52;34.22;76.74;;
58303;Laerm;44109;52.398;7.024;2023-05-07T04:37:13;54.01;33.34;71.00;;
58303;Laerm;44109;52.398;7.024;2023-05-07T04:39:40;55.34;34.73;70.10;;
58303;Laerm;44109;52.398;7.024;2023-05-07T04:42:08;56.04;33.85;73.29;;
58303;Laerm;44109;52.398;7.024;2023-05-07T04:44:36;53.84;34.17;75.08;;
58303;Laerm;44109;52.398;7.024;2023-05-07T04:47:04;52.77;33.64;68.34;;
58303;Laerm;44109;52.398;7.024;2023-05-07T04:49:32;51.80;33.15;65.80;;
58303;Laerm;44109;52.398;7.024;2023-05-07T04:52:01;54.37;33.57;72.13;;
58303;Laerm;44109;52.398;7.024;2023-05-07T04:54:29;53.95;34.38;69.26;;
58303;Laerm;44109;52.398;7.024;2023-05-07T04:56:57;52.52;33.36;66.48;;
58303;Laerm;44109;52.398;7.024;2023-05-07T04:59:24;53.50;34.00;68.99;;
58303;Laerm;44109;52.398;7.024;2023-05-07T05:01:52;55.32;34.69;74.87;;
58303;Laerm;44109;52.398;7.024;2023-05-07T05:04:19;51.78;35.14;69.40;;
58303;Laerm;44109;52.398;7.024;2023-05-07T05:06:47;55.55;34.51;78.75;;
58303;Laerm;44109;52.398;7.024;2023-05-07T05:09:16;53.10;34.35;65.77;;
58303;Laerm;44109;52.398;7.024;2023-05-07T05:11:44;50.23;34.36;68.08;;
58303;Laerm;44109;52.398;7.024;2023-05-07T05:14:12;51.24;33.97;65.15;;
58303;Laerm;44109;52.398;7.024;2023-05-07T05:16:40;51.03;33.78;71.01;;
58303;Laerm;44109;52.398;7.024;2023-05-07T05:19:07;49.52;34.01;68.15;;
58303;Laerm;44109;52.398;7.024;2023-05-07T05:21:35;49.69;33.81;68.36;;
58303;Laerm;44109;52.398;7.024;2023-05-07T05:24:03;49.64;34.10;62.45;;
58303;Laerm;44109;52.398;7.024;2023-05-07T05:26:32;48.68;33.82;64.94;;
58303;Laerm;44109;52.398;7.024;2023-05-07T05:28:59;48.00;33.59;67.97;;
58303;Laerm;44109;52.398;7.024;2023-05-07T05:31:27;50.98;34.57;66.81;;
58303;Laerm;44109;52.398;7.024;2023-05-07T05:33:55;53.72;34.43;67.35;;
58303;Laerm;44109;52.398;7.024;2023-05-07T05:36:22;51.06;34.83;68.76;;
58303;Laerm;44109;52.398;7.024;2023-05-07T05:38:50;54.70;33.68;71.75;;
58303;Laerm;44109;52.398;7.024;2023-05-07T05:41:17;52.83;34.99;65.89;;
58303;Laerm;44109;52.398;7.024;2023-05-07T05:43:46;53.08;35.84;69.69;;
58303;Laerm;44109;52.398;7.024;2023-05-07T05:46:14;53.30;34.00;66.63;;
58303;Laerm;44109;52.398;7.024;2023-05-07T05:48:42;53.66;35.66;67.72;;
58303;Laerm;44109;52.398;7.024;2023-05-07T05:51:10;52.58;33.38;66.16;;
58303;Laerm;44109;52.398;7.024;2023-05-07T05:53:37;53.53;33.62;65.38;;
58303;Laerm;44109;52.398;7.024;2023-05-07T05:56:06;50.17;34.64;66.29;;
58303;Laerm;44109;52.398;7.024;2023-05-07T05:58:34;50.73;36.86;68.21;;
58303;Laerm;44109;52.398;7.024;2023-05-07T06:01:03;56.09;38.44;78.82;;
58303;Laerm;44109;52.398;7.024;2023-05-07T06:03:31;52.81;36.09;65.47;;
58303;Laerm;44109;52.398;7.024;2023-05-07T06:05:59;53.29;37.50;66.76;;
58303;Laerm;44109;52.398;7.024;2023-05-07T06:08:29;51.72;36.72;65.00;;
58303;Laerm;44109;52.398;7.024;2023-05-07T06:10:58;51.05;36.59;62.91;;
58303;Laerm;44109;52.398;7.024;2023-05-07T06:13:25;49.15;36.68;60.24;;
58303;Laerm;44109;52.398;7.024;2023-05-07T06:15:53;56.77;35.34;79.96;;
58303;Laerm;44109;52.398;7.024;2023-05-07T06:18:22;50.49;36.97;63.11;;
58303;Laerm;44109;52.398;7.024;2023-05-07T06:20:51;49.42;36.88;63.36;;
58303;Laerm;44109;52.398;7.024;2023-05-07T06:23:18;51.65;34.21;68.45;;
58303;Laerm;44109;52.398;7.024;2023-05-07T06:25:49;51.25;33.41;65.82;;
58303;Laerm;44109;52.398;7.024;2023-05-07T06:28:16;51.05;36.39;67.54;;
58303;Laerm;44109;52.398;7.024;2023-05-07T06:30:44;51.68;36.57;63.62;;
58303;Laerm;44109;52.398;7.024;2023-05-07T06:33:12;50.36;36.98;71.03;;
58303;Laerm;44109;52.398;7.024;2023-05-07T06:35:41;52.58;36.20;70.30;;
58303;Laerm;44109;52.398;7.024;2023-05-07T06:38:08;52.43;35.16;70.77;;
58303;Laerm;44109;52.398;7.024;2023-05-07T06:40:36;53.47;36.07;69.30;;
58303;Laerm;44109;52.398;7.024;2023-05-07T06:43:04;54.36;37.10;68.58;;
58303;Laerm;44109;52.398;7.024;2023-05-07T06:45:31;51.76;36.86;67.06;;
58303;Laerm;44109;52.398;7.024;2023-05-07T06:47:59;51.28;37.87;70.05;;
58303;Laerm;44109;52.398;7.024;2023-05-07T06:50:27;53.48;37.52;73.03;;
58303;Laerm;44109;52.398;7.024;2023-05-07T06:52:55;51.40;38.51;68.05;;
58303;Laerm;44109;52.398;7.024;2023-05-07T06:55:23;52.00;39.94;69.63;;
58303;Laerm;44109;52.398;7.024;2023-05-07T06:57:50;52.36;37.84;65.65;;
58303;Laerm;44109;52.398;7.024;2023-05-07T07:00:19;53.27;38.80;68.66;;
58303;Laerm;44109;52.398;7.024;2023-05-07T07:02:47;51.76;37.13;67.94;;
58303;Laerm;44109;52.398;7.024;2023-05-07T07:05:15;53.81;36.23;72.14;;
58303;Laerm;44109;52.398;7.024;2023-05-07T07:07:42;54.81;39.75;66.70;;
58303;Laerm;44109;52.398;7.024;2023-05-07T07:10:11;57.34;40.04;75.68;;
58303;Laerm;44109;52.398;7.024;2023-05-07T07:12:39;57.97;40.50;84.74;;
58303;Laerm;44109;52.398;7.024;2023-05-07T07:15:07;53.99;40.22;67.57;;
58303;Laerm;44109;52.398;7.024;2023-05-07T07:17:35;57.30;39.45;82.80;;
58303;Laerm;44109;52.398;7.024;2023-05-07T07:20:04;58.06;40.58;81.84;;
58303;Laerm;44109;52.398;7.024;2023-05-07T07:22:32;53.43;38.52;67.96;;
58303;Laerm;44109;52.398;7.024;2023-05-07T07:25:00;54.71;37.90;71.45;;
58303;Laerm;44109;52.398;7.024;2023-05-07T07:27:29;56.11;36.81;77.81;;
58303;Laerm;44109;52.398;7.024;2023-05-07T07:29:56;56.71;37.77;76.39;;
58303;Laerm;44109;52.398;7.024;2023-05-07T07:32:24;63.77;37.25;89.66;;
58303;Laerm;44109;52.398;7.024;2023-05-07T07:34:51;56.63;36.25;69.92;;
58303;Laerm;44109;52.398;7.024;2023-05-07T07:37:19;52.94;37.03;68.49;;
58303;Laerm;44109;52.398;7.024;2023-05-07T07:39:47;57.59;37.43;83.83;;
58303;Laerm;44109;52.398;7.024;2023-05-07T07:42:14;52.35;38.24;70.88;;
58303;Laerm;44109;52.398;7.024;2023-05-07T07:44:43;54.86;38.31;71.27;;
58303;Laerm;44109;52.398;7.024;2023-05-07T07:47:11;53.62;38.47;67.02;;
58303;Laerm;44109;52.398;7.024;2023-05-07T07:49:38;53.73;40.50;71.27;;
58303;Laerm;44109;52.398;7.024;2023-05-07T07:52:06;53.90;38.08;66.75;;
58303;Laerm;44109;52.398;7.024;2023-05-07T07:54:33;53.86;40.13;65.62;;
58303;Laerm;44109;52.398;7.024;2023-05-07T07:57:01;52.65;38.97;67.21;;
58303;Laerm;44109;52.398;7.024;2023-05-07T07:59:28;52.84;39.79;64.82;;
58303;Laerm;44109;52.398;7.024;2023-05-07T08:01:57;51.41;38.91;65.38;;
58303;Laerm;44109;52.398;7.024;2023-05-07T08:04:25;50.96;41.40;63.91;;
58303;Laerm;44109;52.398;7.024;2023-05-07T08:06:53;50.72;39.05;67.43;;
58303;Laerm;44109;52.398;7.024;2023-05-07T08:09:22;50.95;40.40;70.04;;
58303;Laerm;44109;52.398;7.024;2023-05-07T08:11:49;54.08;39.68;68.02;;
58303;Laerm;44109;52.398;7.024;2023-05-07T08:14:17;55.05;39.93;71.48;;
58303;Laerm;44109;52.398;7.024;2023-05-07T08:16:45;54.14;41.20;66.52;;
58303;Laerm;44109;52.398;7.024;2023-05-07T08:19:14;53.33;40.81;69.39;;
58303;Laerm;44109;52.398;7.024;2023-05-07T08:21:41;55.48;41.36;69.56;;
58303;Laerm;44109;52.398;7.024;2023-05-07T08:24:09;54.38;39.90;68.49;;
58303;Laerm;44109;52.398;7.024;2023-05-07T08:26:36;56.26;39.74;73.58;;
58303;Laerm;44109;52.398;7.024;2023-05-07T08:29:05;57.67;40.99;76.12;;
58303;Laerm;44109;52.398;7.024;2023-05-07T08:31:33;54.41;40.60;71.12;;
58303;Laerm;44109;52.398;7.024;2023-05-07T08:34:01;54.75;43.06;68.01;;
58303;Laerm;44109;52.398;7.024;2023-05-07T08:36:30;56.44;45.32;76.08;;
58303;Laerm;44109;52.398;7.024;2023-05-07T08:38:57;54.87;41.22;69.01;;
58303;Laerm;44109;52.398;7.024;2023-05-07T08:41:25;54.78;41.48;69.16;;
58303;Laerm;44109;52.398;7.024;2023-05-07T08:43:58;57.69;41.42;74.71;;
58303;Laerm;44109;52.398;7.024;2023-05-07T08:46:31;66.29;39.96;88.24;;
58303;Laerm;44109;52.398;7.024;2023-05-07T08:48:59;57.05;40.68;73.83;;
58303;Laerm;44109;52.398;7.024;2023-05-07T08:51:27;56.13;40.46;75.18;;
58303;Laerm;44109;52.398;7.024;2023-05-07T08:53:56;56.09;41.12;71.35;;
58303;Laerm;44109;52.398;7.024;2023-05-07T08:56:23;51.87;39.19;68.71;;
58303;Laerm;44109;52.398;7.024;2023-05-07T08:58:51;53.95;39.26;77.09;;
58303;Laerm;44109;52.398;7.024;2023-05-07T09:01:22;54.98;39.53;76.79;;
58303;Laerm;44109;52.398;7.024;2023-05-07T09:03:50;53.15;40.12;64.31;;
58303;Laerm;44109;52.398;7.024;2023-05-07T09:06:19;50.06;38.89;63.98;;
58303;Laerm;44109;52.398;7.024;2023-05-07T09:08:50;54.48;38.76;84.73;;
58303;Laerm;44109;52.398;7.024;2023-05-07T09:11:21;53.43;41.40;72.72;;
58303;Laerm;44109;52.398;7.024;2023-05-07T09:13:53;53.67;39.66;68.31;;
58303;Laerm;44109;52.398;7.024;2023-05-07T09:16:22;55.66;38.38;71.92;;
58303;Laerm;44109;52.398;7.024;2023-05-07T09:18:52;56.06;40.95;72.19;;
58303;Laerm;44109;52.398;7.024;2023-05-07T09:21:21;54.16;41.49;73.71;;
58303;Laerm;44109;52.398;7.024;2023-05-07T09:23:51;54.41;41.24;69.56;;
58303;Laerm;44109;52.398;7.024;2023-05-07T09:26:23;54.55;40.79;70.86;;
58303;Laerm;44109;52.398;7.024;2023-05-07T09:28:51;59.74;40.29;88.79;;
58303;Laerm;44109;52.398;7.024;2023-05-07T09:31:20;57.41;40.80;80.61;;
58303;Laerm;44109;52.398;7.024;2023-05-07T09:33:49;65.25;40.29;88.13;;
58303;Laerm;44109;52.398;7.024;2023-05-07T09:36:18;52.38;40.42;67.55;;
58303;Laerm;44109;52.398;7.024;2023-05-07T09:38:46;53.21;40.73;72.55;;
58303;Laerm;44109;52.398;7.024;2023-05-07T09:41:14;52.85;39.53;67.73;;
58303;Laerm;44109;52.398;7.024;2023-05-07T09:43:42;53.37;38.85;78.90;;
58303;Laerm;44109;52.398;7.024;2023-05-07T09:46:13;52.70;40.11;71.22;;
58303;Laerm;44109;52.398;7.024;2023-05-07T09:48:43;53.13;37.94;64.44;;
58303;Laerm;44109;52.398;7.024;2023-05-07T09:51:23;53.40;39.29;74.97;;
58303;Laerm;44109;52.398;7.024;2023-05-07T09:53:53;51.19;39.78;63.44;;
58303;Laerm;44109;52.398;7.024;2023-05-07T09:56:21;53.27;38.69;70.34;;
58303;Laerm;44109;52.398;7.024;2023-05-07T09:58:52;53.32;41.12;75.00;;
58303;Laerm;44109;52.398;7.024;2023-05-07T10:01:22;56.42;41.55;71.71;;
58303;Laerm;44109;52.398;7.024;2023-05-07T10:03:52;57.46;40.18;75.07;;
58303;Laerm;44109;52.398;7.024;2023-05-07T10:06:20;55.16;40.16;69.73;;
58303;Laerm;44109;52.398;7.024;2023-05-07T10:08:50;55.64;40.24;73.04;;
58303;Laerm;44109;52.398;7.024;2023-05-07T10:11:19;54.97;38.63;71.80;;
58303;Laerm;44109;52.398;7.024;2023-05-07T10:13:48;64.22;41.59;85.94;;
58303;Laerm;44109;52.398;7.024;2023-05-07T10:16:18;53.77;41.24;70.71;;
58303;Laerm;44109;52.398;7.024;2023-05-07T10:18:47;51.90;39.55;69.97;;
58303;Laerm;44109;52.398;7.024;2023-05-07T10:21:18;53.83;41.07;75.69;;
58303;Laerm;44109;52.398;7.024;2023-05-07T10:23:51;59.73;43.07;86.18;;
58303;Laerm;44109;52.398;7.024;2023-05-07T10:26:23;65.22;44.27;87.99;;
58303;Laerm;44109;52.398;7.024;2023-05-07T10:28:57;59.19;41.30;84.83;;
58303;Laerm;44109;52.398;7.024;2023-05-07T10:31:50;54.43;41.99;70.13;;
58303;Laerm;44109;52.398;7.024;2023-05-07T10:34:26;52.13;41.54;71.70;;
58303;Laerm;44109;52.398;7.024;2023-05-07T10:36:56;52.46;40.99;70.36;;
58303;Laerm;44109;52.398;7.024;2023-05-07T10:39:24;54.48;41.96;65.02;;
58303;Laerm;44109;52.398;7.024;2023-05-07T10:41:52;54.95;40.95;68.75;;
58303;Laerm;44109;52.398;7.024;2023-05-07T10:44:29;54.77;41.00;68.95;;
58303;Laerm;44109;52.398;7.024;2023-05-07T10:47:06;54.65;39.15;73.39;;
58303;Laerm;44109;52.398;7.024;2023-05-07T10:49:36;54.51;40.46;75.92;;
58303;Laerm;44109;52.398;7.024;2023-05-07T10:52:19;54.61;40.68;74.18;;
58303;Laerm;44109;52.398;7.024;2023-05-07T10:54:47;52.18;38.08;66.45;;
58303;Laerm;44109;52.398;7.024;2023-05-07T10:57:38;52.22;39.49;65.10;;
58303;Laerm;44109;52.398;7.024;2023-05-07T11:00:44;51.11;38.11;69.47;;
58303;Laerm;44109;52.398;7.024;2023-05-07T11:03:13;51.15;38.89;73.43;;
58303;Laerm;44109;52.398;7.024;2023-05-07T11:05:42;62.60;38.68;81.02;;
58303;Laerm;44109;52.398;7.024;2023-05-07T11:08:10;61.81;39.16;78.51;;
58303;Laerm;44109;52.398;7.024;2023-05-07T11:10:52;61.80;40.55;77.63;;
58303;Laerm;44109;52.398;7.024;2023-05-07T11:13:42;51.67;40.21;68.94;;
58303;Laerm;44109;52.398;7.024;2023-05-07T11:16:20;51.20;37.31;71.13;;
58303;Laerm;44109;52.398;7.024;2023-05-07T11:18:52;51.70;39.20;63.16;;
58303;Laerm;44109;52.398;7.024;2023-05-07T11:21:34;50.28;38.88;61.10;;
58303;Laerm;44109;52.398;7.024;2023-05-07T11:24:04;51.18;40.82;69.36;;
58303;Laerm;44109;52.398;7.024;2023-05-07T11:26:46;51.00;40.26;60.43;;
58303;Laerm;44109;52.398;7.024;2023-05-07T11:29:16;50.57;39.55;61.81;;
58303;Laerm;44109;52.398;7.024;2023-05-07T11:31:49;52.19;40.77;65.70;;
58303;Laerm;44109;52.398;7.024;2023-05-07T11:34:23;54.61;40.70;72.03;;
58303;Laerm;44109;52.398;7.024;2023-05-07T11:36:52;54.16;42.32;68.32;;
58303;Laerm;44109;52.398;7.024;2023-05-07T11:39:29;54.50;39.77;73.05;;
58303;Laerm;44109;52.398;7.024;2023-05-07T11:41:57;53.52;39.91;74.36;;
58303;Laerm;44109;52.398;7.024;2023-05-07T11:44:25;54.16;41.06;73.64;;
58303;Laerm;44109;52.398;7.024;2023-05-07T11:47:06;53.72;41.00;70.16;;
58303;Laerm;44109;52.398;7.024;2023-05-07T11:49:35;51.57;40.56;63.31;;
58303;Laerm;44109;52.398;7.024;2023-05-07T11:52:03;56.10;41.60;70.47;;
58303;Laerm;44109;52.398;7.024;2023-05-07T11:54:35;64.91;40.70;86.76;;
58303;Laerm;44109;52.398;7.024;2023-05-07T11:57:04;64.52;41.66;83.81;;
58303;Laerm;44109;52.398;7.024;2023-05-07T11:59:38;52.94;38.66;68.35;;
58303;Laerm;44109;52.398;7.024;2023-05-07T12:02:07;52.47;41.34;69.13;;
58303;Laerm;44109;52.398;7.024;2023-05-07T12:04:38;51.30;40.54;64.91;;
58303;Laerm;44109;52.398;7.024;2023-05-07T12:07:11;51.39;40.83;71.36;;
58303;Laerm;44109;52.398;7.024;2023-05-07T12:09:39;51.86;40.26;67.69;;
58303;Laerm;44109;52.398;7.024;2023-05-07T12:12:08;51.65;40.16;63.21;;
58303;Laerm;44109;52.398;7.024;2023-05-07T12:14:38;53.22;41.34;67.02;;
58303;Laerm;44109;52.398;7.024;2023-05-07T12:17:07;52.30;40.82;67.90;;
58303;Laerm;44109;52.398;7.024;2023-05-07T12:19:38;51.29;40.26;66.05;;
58303;Laerm;44109;52.398;7.024;2023-05-07T12:22:08;52.83;40.56;66.96;;
58303;Laerm;44109;52.398;7.024;2023-05-07T12:24:46;52.83;42.08;70.29;;
58303;Laerm;44109;52.398;7.024;2023-05-07T12:27:15;57.03;41.97;81.39;;
58303;Laerm;44109;52.398;7.024;2023-05-07T12:29:45;53.30;39.55;65.77;;
58303;Laerm;44109;52.398;7.024;2023-05-07T12:32:14;53.33;41.70;66.30;;
58303;Laerm;44109;52.398;7.024;2023-05-07T12:34:44;51.41;39.56;66.26;;
58303;Laerm;44109;52.398;7.024;2023-05-07T12:37:13;54.67;40.98;75.08;;
58303;Laerm;44109;52.398;7.024;2023-05-07T12:39:44;56.41;40.38;75.62;;
58303;Laerm;44109;52.398;7.024;2023-05-07T12:42:15;51.85;39.65;65.72;;
58303;Laerm;44109;52.398;7.024;2023-05-07T12:44:46;55.36;41.76;80.50;;
58303;Laerm;44109;52.398;7.024;2023-05-07T12:47:15;53.46;40.69;73.95;;
58303;Laerm;44109;52.398;7.024;2023-05-07T12:49:44;58.73;40.50;77.11;;
58303;Laerm;44109;52.398;7.024;2023-05-07T12:52:13;55.55;39.63;78.25;;
58303;Laerm;44109;52.398;7.024;2023-05-07T12:54:41;53.63;41.14;75.81;;
58303;Laerm;44109;52.398;7.024;2023-05-07T12:57:10;55.36;39.74;77.52;;
58303;Laerm;44109;52.398;7.024;2023-05-07T12:59:40;57.98;40.12;77.00;;
58303;Laerm;44109;52.398;7.024;2023-05-07T13:02:08;57.44;38.72;79.79;;
58303;Laerm;44109;52.398;7.024;2023-05-07T13:04:36;53.86;40.02;74.81;;
58303;Laerm;44109;52.398;7.024;2023-05-07T13:07:05;54.83;40.71;76.02;;
58303;Laerm;44109;52.398;7.024;2023-05-07T13:09:33;55.68;41.31;72.53;;
58303;Laerm;44109;52.398;7.024;2023-05-07T13:12:01;53.18;41.70;69.39;;
58303;Laerm;44109;52.398;7.024;2023-05-07T13:14:28;53.28;41.45;72.10;;
58303;Laerm;44109;52.398;7.024;2023-05-07T13:16:56;52.58;39.65;63.47;;
58303;Laerm;44109;52.398;7.024;2023-05-07T13:19:23;54.94;38.88;73.43;;
58303;Laerm;44109;52.398;7.024;2023-05-07T13:21:51;55.22;39.76;71.76;;
58303;Laerm;44109;52.398;7.024;2023-05-07T13:24:20;55.09;39.79;69.07;;
58303;Laerm;44109;52.398;7.024;2023-05-07T13:26:47;54.55;40.21;67.48;;
58303;Laerm;44109;52.398;7.024;2023-05-07T13:29:15;54.95;40.05;72.46;;
58303;Laerm;44109;52.398;7.024;2023-05-07T13:31:42;55.28;40.76;71.11;;
58303;Laerm;44109;52.398;7.024;2023-05-07T13:34:10;50.88;39.59;63.94;;
58303;Laerm;44109;52.398;7.024;2023-05-07T13:36:38;51.48;40.09;71.68;;
58303;Laerm;44109;52.398;7.024;2023-05-07T13:39:06;50.96;39.86;64.53;;
58303;Laerm;44109;52.398;7.024;2023-05-07T13:41:35;50.57;41.19;62.60;;
58303;Laerm;44109;52.398;7.024;2023-05-07T13:44:02;50.25;39.45;66.97;;
58303;Laerm;44109;52.398;7.024;2023-05-07T13:46:30;51.02;40.11;72.78;;
58303;Laerm;44109;52.398;7.024;2023-05-07T13:48:58;50.83;38.62;69.29;;
58303;Laerm;44109;52.398;7.024;2023-05-07T13:51:25;51.08;40.02;63.81;;
58303;Laerm;44109;52.398;7.024;2023-05-07T13:53:53;50.76;38.33;62.97;;